createdAt,value
2023-02-18T00:01:45.284Z,100182.69
2023-02-18T00:04:14.811Z,100173.59
2023-02-18T00:06:42.947Z,100177.16
2023-02-18T00:09:12.633Z,100186.69
2023-02-18T00:11:40.923Z,100174.84
2023-02-18T00:14:13.209Z,100179.44
2023-02-18T00:16:41.906Z,100169.94
2023-02-18T00:19:12.928Z,100173.03
2023-02-18T00:21:42.732Z,100166.63
2023-02-18T00:24:15.317Z,100152.31
2023-02-18T00:26:44.493Z,100160.75
2023-02-18T00:29:12.930Z,100166.88
2023-02-18T00:31:42.790Z,100162.00
2023-02-18T00:34:12.821Z,100155.06
2023-02-18T00:36:42.823Z,100162.84
2023-02-18T00:39:12.684Z,100157.13
2023-02-18T00:41:41.162Z,100150.91
2023-02-18T00:44:09.481Z,100144.78
2023-02-18T00:46:38.280Z,100145.28
2023-02-18T00:49:07.401Z,100154.16
2023-02-18T00:51:35.756Z,100145.28
2023-02-18T00:54:05.407Z,100150.75
2023-02-18T00:56:33.787Z,100142.25
2023-02-18T00:59:02.073Z,100128.88
2023-02-18T01:01:30.687Z,100124.72
2023-02-18T01:03:59.078Z,100116.94
2023-02-18T01:06:27.333Z,100128.53
2023-02-18T01:08:55.838Z,100125.50
2023-02-18T01:11:25.545Z,100132.97
2023-02-18T01:13:55.565Z,100125.66
2023-02-18T01:16:24.446Z,100117.63
2023-02-18T01:18:52.822Z,100111.97
2023-02-18T01:21:21.168Z,100121.22
2023-02-18T01:23:50.846Z,100113.03
2023-02-18T01:26:19.048Z,100107.63
2023-02-18T01:28:48.710Z,100115.22
2023-02-18T01:31:17.603Z,100108.22
2023-02-18T01:33:45.994Z,100102.66
2023-02-18T01:36:14.924Z,100116.53
2023-02-18T01:38:43.172Z,100093.78
2023-02-18T01:41:11.851Z,100085.19
2023-02-18T01:43:40.170Z,100095.75
2023-02-18T01:46:18.893Z,100087.38
2023-02-18T01:48:51.404Z,100095.19
2023-02-18T01:51:23.114Z,100088.09
2023-02-18T01:53:56.676Z,100099.28
2023-02-18T01:56:30.464Z,100100.88
2023-02-18T01:59:01.674Z,100087.88
2023-02-18T02:01:33.726Z,100100.13
2023-02-18T02:04:03.360Z,100093.84
2023-02-18T02:06:31.557Z,100083.75
2023-02-18T02:09:03.287Z,100074.59
2023-02-18T02:11:54.486Z,100069.97
2023-02-18T02:14:41.050Z,100078.44
2023-02-18T02:17:16.127Z,100068.16
2023-02-18T02:20:15.820Z,100061.06
2023-02-18T02:23:17.282Z,100072.00
2023-02-18T02:26:17.351Z,100062.38
2023-02-18T02:29:19.409Z,100070.19
2023-02-18T02:32:23.649Z,100061.53
2023-02-18T02:34:59.506Z,100054.94
2023-02-18T02:37:36.688Z,100053.44
2023-02-18T02:40:17.853Z,100065.78
2023-02-18T02:42:52.450Z,100080.50
2023-02-18T02:45:30.381Z,100070.84
2023-02-18T02:48:06.413Z,100071.81
2023-02-18T02:50:42.148Z,100076.56
2023-02-18T02:53:17.467Z,100074.66
2023-02-18T02:55:45.799Z,100080.38
2023-02-18T02:58:17.045Z,100076.13
2023-02-18T03:01:00.619Z,100081.09
2023-02-18T03:04:07.191Z,100080.19
2023-02-18T03:07:13.871Z,100078.88
2023-02-18T03:09:57.386Z,100082.19
2023-02-18T03:12:35.582Z,100091.69
2023-02-18T03:15:09.148Z,100079.59
2023-02-18T03:17:42.947Z,100090.97
2023-02-18T03:20:19.593Z,100091.28
2023-02-18T03:22:52.436Z,100077.19
2023-02-18T03:25:23.162Z,100097.97
2023-02-18T03:27:54.586Z,100081.41
2023-02-18T03:30:26.943Z,100080.56
2023-02-18T03:33:00.092Z,100092.31
2023-02-18T03:35:31.903Z,100086.94
2023-02-18T03:38:08.505Z,100074.75
2023-02-18T03:40:36.821Z,100098.03
2023-02-18T03:43:05.039Z,100102.78
2023-02-18T03:45:33.297Z,100099.03
2023-02-18T03:48:01.697Z,100104.81
2023-02-18T03:50:29.907Z,100106.91
2023-02-18T03:52:58.127Z,100097.41
2023-02-18T03:55:28.180Z,100097.94
2023-02-18T03:57:56.364Z,100110.22
2023-02-18T04:00:24.842Z,100123.88
2023-02-18T04:02:53.022Z,100124.91
2023-02-18T04:05:21.301Z,100122.38
2023-02-18T04:07:50.576Z,100123.41
2023-02-18T04:10:18.969Z,100130.50
2023-02-18T04:12:48.641Z,100126.34
2023-02-18T04:15:17.055Z,100138.06
2023-02-18T04:17:45.227Z,100128.53
2023-02-18T04:20:14.074Z,100129.59
2023-02-18T04:22:42.272Z,100134.09
2023-02-18T04:25:10.621Z,100132.53
2023-02-18T04:27:38.846Z,100131.75
2023-02-18T04:30:10.961Z,100141.50
2023-02-18T04:32:39.322Z,100132.03
2023-02-18T04:35:08.312Z,100141.41
2023-02-18T04:37:36.538Z,100147.09
2023-02-18T04:40:05.174Z,100124.16
2023-02-18T04:42:33.349Z,100139.16
2023-02-18T04:45:01.574Z,100143.97
2023-02-18T04:47:31.245Z,100151.25
2023-02-18T04:49:59.465Z,100156.44
2023-02-18T04:52:27.934Z,100150.50
2023-02-18T04:54:56.195Z,100158.84
2023-02-18T04:57:24.368Z,100151.56
2023-02-18T04:59:52.580Z,100165.25
2023-02-18T05:02:20.943Z,100166.00
2023-02-18T05:04:50.788Z,100159.03
2023-02-18T05:07:19.022Z,100166.19
2023-02-18T05:09:47.337Z,100167.97
2023-02-18T05:12:15.494Z,100171.56
2023-02-18T05:14:43.643Z,100173.38
2023-02-18T05:17:11.809Z,100172.59
2023-02-18T05:19:39.950Z,100169.19
2023-02-18T05:22:09.553Z,100180.50
2023-02-18T05:24:37.722Z,100196.31
2023-02-18T05:27:06.113Z,100192.88
2023-02-18T05:29:34.309Z,100194.78
2023-02-18T05:32:02.538Z,100194.22
2023-02-18T05:34:30.756Z,100194.22
2023-02-18T05:36:59.014Z,100206.03
2023-02-18T05:39:28.772Z,100207.22
2023-02-18T05:41:56.982Z,100208.28
2023-02-18T05:44:31.500Z,100211.25
2023-02-18T05:47:00.584Z,100215.09
2023-02-18T05:49:29.110Z,100220.50
2023-02-18T05:51:57.385Z,100217.91
2023-02-18T05:54:26.682Z,100219.19
2023-02-18T05:56:56.943Z,100231.66
2023-02-18T05:59:25.443Z,100228.91
2023-02-18T06:01:54.002Z,100242.78
2023-02-18T06:04:22.263Z,100243.75
2023-02-18T06:06:50.787Z,100240.31
2023-02-18T06:09:19.219Z,100240.41
2023-02-18T06:11:47.767Z,100246.91
2023-02-18T06:14:18.291Z,100245.47
2023-02-18T06:16:46.665Z,100245.13
2023-02-18T06:19:14.973Z,100254.16
2023-02-18T06:21:43.260Z,100261.66
2023-02-18T06:24:11.715Z,100269.69
2023-02-18T06:26:40.092Z,100270.63
2023-02-18T06:29:08.339Z,100278.88
2023-02-18T06:31:38.055Z,100283.56
2023-02-18T06:34:06.297Z,100287.03
2023-02-18T06:36:34.602Z,100278.31
2023-02-18T06:39:05.161Z,100274.53
2023-02-18T06:41:33.965Z,100267.81
2023-02-18T06:44:02.449Z,100273.50
2023-02-18T06:46:30.659Z,100265.53
2023-02-18T06:49:00.255Z,100270.59
2023-02-18T06:51:28.526Z,100272.94
2023-02-18T06:53:56.738Z,100282.91
2023-02-18T06:56:25.142Z,100278.31
2023-02-18T06:58:53.596Z,100274.75
2023-02-18T07:01:22.167Z,100276.63
2023-02-18T07:03:50.481Z,100271.00
2023-02-18T07:06:20.193Z,100279.81
2023-02-18T07:08:48.499Z,100277.91
2023-02-18T07:11:16.751Z,100279.56
2023-02-18T07:13:45.141Z,100277.31
2023-02-18T07:16:13.355Z,100283.38
2023-02-18T07:18:42.014Z,100287.41
2023-02-18T07:21:10.225Z,100288.59
2023-02-18T07:23:39.984Z,100293.09
2023-02-18T07:26:11.337Z,100291.50
2023-02-18T07:28:40.093Z,100297.44
2023-02-18T07:31:08.946Z,100285.72
2023-02-18T07:33:37.395Z,100285.34
2023-02-18T07:36:06.660Z,100288.41
2023-02-18T07:38:35.019Z,100286.94
2023-02-18T07:41:04.742Z,100276.38
2023-02-18T07:43:33.018Z,100277.00
2023-02-18T07:46:01.205Z,100269.63
2023-02-18T07:48:29.516Z,100269.09
2023-02-18T07:50:57.940Z,100275.53
2023-02-18T07:53:26.198Z,100269.91
2023-02-18T07:55:54.564Z,100270.53
2023-02-18T07:58:26.438Z,100268.66
2023-02-18T08:00:57.308Z,100267.44
2023-02-18T08:03:27.627Z,100278.19
2023-02-18T08:05:56.332Z,100272.91
2023-02-18T08:08:26.574Z,100267.56
2023-02-18T08:10:56.512Z,100270.28
2023-02-18T08:13:26.599Z,100273.13
2023-02-18T08:15:56.506Z,100266.16
2023-02-18T08:18:26.346Z,100270.03
2023-02-18T08:20:54.829Z,100271.38
2023-02-18T08:23:25.864Z,100259.06
2023-02-18T08:25:55.905Z,100281.13
2023-02-18T08:28:26.716Z,100261.16
2023-02-18T08:30:56.594Z,100277.50
2023-02-18T08:33:24.889Z,100275.16
2023-02-18T08:35:54.987Z,100266.34
2023-02-18T08:38:24.374Z,100265.47
2023-02-18T08:41:11.801Z,100271.31
2023-02-18T08:43:41.495Z,100272.44
2023-02-18T08:46:15.873Z,100275.47
2023-02-18T08:48:44.799Z,100266.69
2023-02-18T08:51:17.705Z,100264.22
2023-02-18T08:53:47.027Z,100260.69
2023-02-18T08:56:16.182Z,100255.28
2023-02-18T08:58:46.266Z,100271.00
2023-02-18T09:01:15.103Z,100265.56
2023-02-18T09:03:43.553Z,100275.72
2023-02-18T09:06:12.069Z,100272.31
2023-02-18T09:08:40.317Z,100272.63
2023-02-18T09:11:10.771Z,100274.72
2023-02-18T09:13:39.130Z,100274.38
2023-02-18T09:16:12.290Z,100267.09
2023-02-18T09:18:40.704Z,100270.78
2023-02-18T09:21:10.431Z,100268.13
2023-02-18T09:23:38.806Z,100260.97
2023-02-18T09:26:08.178Z,100268.34
2023-02-18T09:28:37.615Z,100250.75
2023-02-18T09:31:10.006Z,100259.06
2023-02-18T09:33:38.537Z,100257.06
2023-02-18T09:36:07.286Z,100264.91
2023-02-18T09:38:36.407Z,100249.75
2023-02-18T09:41:10.193Z,100236.91
2023-02-18T09:43:44.161Z,100249.59
2023-02-18T09:46:21.418Z,100247.78
2023-02-18T09:48:50.692Z,100242.28
2023-02-18T09:51:19.612Z,100240.19
2023-02-18T09:53:48.694Z,100242.84
2023-02-18T09:56:21.901Z,100240.94
2023-02-18T09:58:52.057Z,100240.72
2023-02-18T10:01:28.652Z,100241.50
2023-02-18T10:04:00.461Z,100238.53
2023-02-18T10:06:32.186Z,100237.03
2023-02-18T10:09:04.474Z,100231.34
2023-02-18T10:11:34.365Z,100235.47
2023-02-18T10:14:04.377Z,100236.06
2023-02-18T10:16:34.537Z,100236.28
2023-02-18T10:19:07.856Z,100239.28
2023-02-18T10:21:37.288Z,100225.06
2023-02-18T10:24:12.663Z,100235.47
2023-02-18T10:26:40.948Z,100239.28
2023-02-18T10:29:16.407Z,100220.81
2023-02-18T10:31:53.673Z,100234.03
2023-02-18T10:34:31.494Z,100237.88
2023-02-18T10:37:08.684Z,100237.97
2023-02-18T10:39:49.453Z,100233.44
2023-02-18T10:42:31.153Z,100223.88
2023-02-18T10:45:10.540Z,100223.56
2023-02-18T10:47:43.502Z,100204.38
2023-02-18T10:50:15.266Z,100206.72
2023-02-18T10:52:47.137Z,100202.91
2023-02-18T10:55:19.021Z,100197.25
2023-02-18T10:57:49.893Z,100193.34
2023-02-18T11:00:20.577Z,100195.22
2023-02-18T11:03:06.182Z,100197.22
2023-02-18T11:05:37.401Z,100177.81
2023-02-18T11:08:10.384Z,100188.03
2023-02-18T11:10:41.747Z,100187.94
2023-02-18T11:13:12.004Z,100172.63
2023-02-18T11:15:54.756Z,100181.00
2023-02-18T11:18:30.228Z,100177.44
2023-02-18T11:21:01.117Z,100172.88
2023-02-18T11:23:29.758Z,100181.47
2023-02-18T11:26:02.103Z,100164.53
2023-02-18T11:28:46.498Z,100161.88
2023-02-18T11:31:23.352Z,100158.31
2023-02-18T11:33:56.372Z,100159.38
2023-02-18T11:36:29.888Z,100147.97
2023-02-18T11:39:00.552Z,100145.97
2023-02-18T11:41:35.411Z,100135.34
2023-02-18T11:44:06.291Z,100135.53
2023-02-18T11:46:34.857Z,100130.19
2023-02-18T11:49:23.683Z,100131.56
2023-02-18T11:51:52.552Z,100127.09
2023-02-18T11:54:26.921Z,100114.34
2023-02-18T11:57:00.422Z,100112.66
2023-02-18T11:59:30.912Z,100118.28
2023-02-18T12:02:05.075Z,100101.91
2023-02-18T12:04:42.207Z,100110.72
2023-02-18T12:07:20.755Z,100086.19
2023-02-18T12:09:56.255Z,100081.09
2023-02-18T12:12:29.849Z,100083.97
2023-02-18T12:14:59.237Z,100075.59
2023-02-18T12:17:44.350Z,100083.47
2023-02-18T12:20:38.690Z,100062.09
2023-02-18T12:23:17.370Z,100058.59
2023-02-18T12:25:56.007Z,100063.56
2023-02-18T12:28:37.553Z,100072.22
2023-02-18T12:31:29.271Z,100068.34
2023-02-18T12:34:14.892Z,100054.91
2023-02-18T12:36:56.256Z,100053.56
2023-02-18T12:39:37.907Z,100044.00
2023-02-18T12:42:33.275Z,100051.31
2023-02-18T12:45:20.640Z,100025.53
2023-02-18T12:48:11.698Z,100042.81
2023-02-18T12:51:10.018Z,100037.28
2023-02-18T12:54:08.156Z,100034.19
2023-02-18T12:57:09.127Z,100024.53
2023-02-18T13:00:24.796Z,100027.47
2023-02-18T13:03:15.626Z,100021.41
2023-02-18T13:05:50.034Z,100009.31
2023-02-18T13:08:32.849Z,100006.41
2023-02-18T13:11:11.634Z,99998.44
2023-02-18T13:13:45.330Z,99993.97
2023-02-18T13:16:16.566Z,99983.97
2023-02-18T13:18:48.982Z,99991.69
2023-02-18T13:21:18.384Z,99994.00
2023-02-18T13:23:53.496Z,99986.97
2023-02-18T13:26:24.935Z,99988.41
2023-02-18T13:29:05.656Z,99965.03
2023-02-18T13:31:44.589Z,99982.75
2023-02-18T13:34:20.802Z,99977.66
2023-02-18T13:36:58.433Z,99988.28
2023-02-18T13:39:28.490Z,99982.25
2023-02-18T13:42:14.695Z,99978.13
2023-02-18T13:45:05.547Z,99978.13
2023-02-18T13:47:41.819Z,99953.47
2023-02-18T13:50:29.380Z,99954.19
2023-02-18T13:53:16.706Z,99946.97
2023-02-18T13:55:54.371Z,99937.53
2023-02-18T13:58:30.490Z,99944.78
2023-02-18T14:01:06.135Z,99940.53
2023-02-18T14:03:53.138Z,99935.19
2023-02-18T14:06:24.646Z,99936.66
2023-02-18T14:09:04.917Z,99924.72
2023-02-18T14:11:48.831Z,99919.97
2023-02-18T14:14:40.949Z,99909.69
2023-02-18T14:17:34.834Z,99908.31
2023-02-18T14:20:39.839Z,99893.06
2023-02-18T14:23:32.456Z,99888.16
2023-02-18T14:26:08.812Z,99902.69
2023-02-18T14:28:41.572Z,99883.84
2023-02-18T14:31:30.515Z,99873.88
2023-02-18T14:34:38.076Z,99876.69
2023-02-18T14:37:32.602Z,99878.75
2023-02-18T14:40:16.461Z,99878.97
2023-02-18T14:42:52.070Z,99880.56
2023-02-18T14:45:31.192Z,99877.41
2023-02-18T14:48:27.458Z,99876.84
2023-02-18T14:50:56.915Z,99871.00
2023-02-18T14:53:28.490Z,99876.09
2023-02-18T14:56:05.663Z,99887.47
2023-02-18T14:58:38.199Z,99869.34
2023-02-18T15:01:19.618Z,99863.28
2023-02-18T15:03:51.766Z,99865.25
2023-02-18T15:06:31.002Z,99871.19
2023-02-18T15:08:59.705Z,99882.50
2023-02-18T15:11:38.186Z,99867.66
2023-02-18T15:14:15.770Z,99866.63
2023-02-18T15:16:46.966Z,99875.66
2023-02-18T15:19:19.291Z,99859.84
2023-02-18T15:21:50.788Z,99864.97
2023-02-18T15:24:28.193Z,99869.91
2023-02-18T15:27:02.267Z,99873.94
2023-02-18T15:29:34.921Z,99883.50
2023-02-18T15:34:39.529Z,99871.72
2023-02-18T15:37:14.085Z,99866.94
2023-02-18T15:39:44.480Z,99865.63
2023-02-18T15:42:21.017Z,99865.19
2023-02-18T15:44:52.608Z,99862.88
2023-02-18T15:47:24.369Z,99863.47
2023-02-18T15:49:58.551Z,99860.09
2023-02-18T15:52:30.508Z,99870.66
2023-02-18T15:55:05.784Z,99864.41
2023-02-18T15:57:40.860Z,99860.78
2023-02-18T16:00:27.294Z,99844.00
2023-02-18T16:03:00.234Z,99859.19
2023-02-18T16:05:32.321Z,99863.03
2023-02-18T16:08:03.081Z,99865.66
2023-02-18T16:10:46.179Z,99862.59
2023-02-18T16:13:18.519Z,99853.56
2023-02-18T16:15:50.226Z,99862.59
2023-02-18T16:18:29.668Z,99857.75
2023-02-18T16:21:03.551Z,99866.78
2023-02-18T16:23:38.349Z,99856.09
2023-02-18T16:26:23.535Z,99856.63
2023-02-18T16:28:55.073Z,99849.34
2023-02-18T16:31:24.364Z,99851.47
2023-02-18T16:33:53.931Z,99853.75
2023-02-18T16:36:27.265Z,99845.13
2023-02-18T16:38:56.120Z,99849.84
2023-02-18T16:41:25.672Z,99845.78
2023-02-18T16:43:54.964Z,99835.66
2023-02-18T16:46:26.388Z,99833.72
2023-02-18T16:48:57.213Z,99836.44
2023-02-18T16:51:33.132Z,99845.75
2023-02-18T16:54:02.161Z,99838.03
2023-02-18T16:56:37.500Z,99842.88
2023-02-18T16:59:06.484Z,99838.84
2023-02-18T17:01:38.520Z,99845.34
2023-02-18T17:04:08.338Z,99857.81
2023-02-18T17:06:39.690Z,99849.41
2023-02-18T17:09:17.547Z,99858.25
2023-02-18T17:11:47.703Z,99856.84
2023-02-18T17:14:19.425Z,99857.84
2023-02-18T17:16:48.299Z,99857.84
2023-02-18T17:19:18.222Z,99852.84
2023-02-18T17:21:49.216Z,99860.91
2023-02-18T17:24:20.396Z,99849.44
2023-02-18T17:26:49.374Z,99863.50
2023-02-18T17:29:20.231Z,99858.53
2023-02-18T17:31:50.684Z,99852.81
2023-02-18T17:34:24.555Z,99855.78
2023-02-18T17:36:55.402Z,99852.53
2023-02-18T17:39:26.631Z,99834.66
2023-02-18T17:41:56.045Z,99845.72
2023-02-18T17:44:26.740Z,99857.47
2023-02-18T17:46:56.877Z,99854.06
2023-02-18T17:49:28.724Z,99850.78
2023-02-18T17:51:59.535Z,99842.22
2023-02-18T17:54:29.046Z,99848.47
2023-02-18T17:56:58.447Z,99832.72
2023-02-18T17:59:28.774Z,99826.75
2023-02-18T18:01:57.946Z,99839.97
2023-02-18T18:04:27.278Z,99834.72
2023-02-18T18:06:58.309Z,99822.03
2023-02-18T18:09:27.682Z,99834.88
2023-02-18T18:11:57.266Z,99834.78
2023-02-18T18:14:26.660Z,99839.41
2023-02-18T18:16:55.852Z,99842.13
2023-02-18T18:19:25.553Z,99844.88
2023-02-18T18:21:54.953Z,99851.22
2023-02-18T18:24:25.863Z,99849.66
2023-02-18T18:26:57.358Z,99851.22
2023-02-18T18:29:27.528Z,99834.97
2023-02-18T18:31:58.549Z,99834.22
2023-02-18T18:34:28.937Z,99837.75
2023-02-18T18:37:00.212Z,99845.91
2023-02-18T18:39:32.588Z,99860.75
2023-02-18T18:42:04.542Z,99844.13
2023-02-18T18:44:34.910Z,99849.16
2023-02-18T18:47:05.318Z,99855.03
2023-02-18T18:49:36.102Z,99840.84
2023-02-18T18:52:06.360Z,99840.72
2023-02-18T18:54:52.543Z,99843.81
2023-02-18T18:57:22.096Z,99841.97
2023-02-18T18:59:52.057Z,99843.69
2023-02-18T19:02:22.380Z,99857.53
2023-02-18T19:05:01.767Z,99850.47
2023-02-18T19:07:31.299Z,99843.38
2023-02-18T19:10:02.277Z,99850.03
2023-02-18T19:12:32.309Z,99850.88
2023-02-18T19:15:01.751Z,99849.00
2023-02-18T19:17:31.529Z,99848.03
2023-02-18T19:20:04.830Z,99852.97
2023-02-18T19:22:33.475Z,99854.69
2023-02-18T19:25:04.627Z,99852.19
2023-02-18T19:27:34.290Z,99851.59
2023-02-18T19:30:04.289Z,99854.06
2023-02-18T19:32:33.784Z,99861.25
2023-02-18T19:35:03.022Z,99864.72
2023-02-18T19:37:36.400Z,99871.59
2023-02-18T19:40:18.669Z,99873.59
2023-02-18T19:42:48.588Z,99882.75
2023-02-18T19:45:19.409Z,99888.91
2023-02-18T19:47:49.031Z,99890.44
2023-02-18T19:50:19.879Z,99897.84
2023-02-18T19:52:51.660Z,99903.78
2023-02-18T19:55:22.675Z,99900.91
2023-02-18T19:57:55.553Z,99882.50
2023-02-18T20:00:24.536Z,99876.44
2023-02-18T20:02:54.906Z,99890.38
2023-02-18T20:05:24.369Z,99895.66
2023-02-18T20:07:53.843Z,99879.06
2023-02-18T20:10:25.972Z,99893.03
2023-02-18T20:12:56.218Z,99896.50
2023-02-18T20:15:26.076Z,99900.81
2023-02-18T20:17:56.804Z,99912.19
2023-02-18T20:20:28.930Z,99920.28
2023-02-18T20:22:59.602Z,99921.81
2023-02-18T20:25:31.180Z,99917.66
2023-02-18T20:28:03.375Z,99925.53
2023-02-18T20:30:39.227Z,99923.81
2023-02-18T20:33:20.680Z,99921.97
2023-02-18T20:35:59.376Z,99927.09
2023-02-18T20:38:31.812Z,99922.13
2023-02-18T20:41:07.388Z,99931.03
2023-02-18T20:43:37.045Z,99922.47
2023-02-18T20:46:07.553Z,99910.25
2023-02-18T20:48:37.562Z,99922.59
2023-02-18T20:51:11.921Z,99922.84
2023-02-18T20:53:43.398Z,99923.09
2023-02-18T20:56:16.036Z,99921.44
2023-02-18T20:58:45.137Z,99923.56
2023-02-18T21:01:16.600Z,99910.78
2023-02-18T21:03:48.429Z,99911.78
2023-02-18T21:06:19.860Z,99909.78
2023-02-18T21:08:53.454Z,99921.41
2023-02-18T21:11:26.364Z,99931.97
2023-02-18T21:13:57.936Z,99934.56
2023-02-18T21:16:31.031Z,99922.72
2023-02-18T21:19:00.512Z,99934.59
2023-02-18T21:21:29.722Z,99937.09
2023-02-18T21:23:58.888Z,99942.72
2023-02-18T21:26:32.071Z,99943.66
2023-02-18T21:29:06.124Z,99931.44
2023-02-18T21:31:45.657Z,99944.88
2023-02-18T21:34:15.714Z,99939.59
2023-02-18T21:36:44.951Z,99926.28
2023-02-18T21:39:13.961Z,99924.59
2023-02-18T21:41:44.513Z,99941.94
2023-02-18T21:44:12.828Z,99941.84
2023-02-18T21:46:42.207Z,99945.88
2023-02-18T21:49:12.758Z,99952.75
2023-02-18T21:51:58.169Z,99953.28
2023-02-18T21:54:28.480Z,99950.25
2023-02-18T21:57:00.534Z,99949.56
2023-02-18T21:59:31.075Z,99942.84
2023-02-18T22:02:01.132Z,99935.09
2023-02-18T22:04:31.723Z,99948.88
2023-02-18T22:07:01.669Z,99947.31
2023-02-18T22:09:30.621Z,99948.13
2023-02-18T22:12:00.398Z,99957.81
2023-02-18T22:14:28.779Z,99961.34
2023-02-18T22:16:57.465Z,99952.16
2023-02-18T22:19:28.879Z,99954.22
2023-02-18T22:21:57.516Z,99955.56
2023-02-18T22:24:25.956Z,99962.34
2023-02-18T22:26:54.457Z,99966.06
2023-02-18T22:29:24.516Z,99952.16
2023-02-18T22:31:53.605Z,99966.19
2023-02-18T22:34:25.554Z,99955.06
2023-02-18T22:36:53.806Z,99967.13
2023-02-18T22:39:22.343Z,99960.06
2023-02-18T22:41:50.598Z,99983.03
2023-02-18T22:44:24.435Z,99968.41
2023-02-18T22:46:52.668Z,99964.31
2023-02-18T22:49:21.041Z,99971.97
2023-02-18T22:51:52.973Z,99963.16
2023-02-18T22:54:21.901Z,99979.09
2023-02-18T22:56:50.628Z,99975.91
2023-02-18T22:59:19.548Z,99979.16
2023-02-18T23:01:53.042Z,99969.72
2023-02-18T23:04:22.564Z,99974.75
2023-02-18T23:06:51.126Z,99980.38
2023-02-18T23:09:21.788Z,99974.41
2023-02-18T23:11:54.712Z,99972.19
2023-02-18T23:14:23.391Z,99973.50
2023-02-18T23:17:14.707Z,99972.88
2023-02-18T23:19:44.488Z,99978.28
2023-02-18T23:22:14.609Z,99982.19
2023-02-18T23:24:45.552Z,99976.84
2023-02-18T23:27:16.284Z,99985.84
2023-02-18T23:29:44.726Z,99983.84
2023-02-18T23:32:15.016Z,99994.19
2023-02-18T23:34:43.351Z,99994.38
2023-02-18T23:37:11.996Z,99989.50
2023-02-18T23:39:40.549Z,99997.25
2023-02-18T23:42:09.545Z,99989.94
2023-02-18T23:44:37.829Z,99994.31
2023-02-18T23:47:06.124Z,99998.81
2023-02-18T23:49:35.838Z,100002.09
2023-02-18T23:52:04.345Z,100004.88
2023-02-18T23:54:32.626Z,100003.72
2023-02-18T23:57:00.834Z,99997.03
2023-02-18T23:59:29.058Z,100006.94
